Terminal Aerodrome Forecast
Issued by NWS

Home | Current Version | Previous Version | Text Only | Print | Product List | Glossary Off
Versions: 1 2 3 4 5 6 7 8 9 10 11 12 13 14 15 16 17 18 19 20 21 22 23 24 25 26 27 28 29 30 31 32 33

000
FTUS43 KLOT 241600 AAC
TAFMDW
TAF AMD
KMDW 241610Z 2416/2512 24006KT P6SM BKN027
     FM241700 21006KT P6SM FEW025 SCT250
     FM250000 19004KT P6SM BKN080
     FM250300 21005KT 3SM BR BKN015
     FM250600 23004KT 1SM BR SCT005=

USA.gov is the U.S. government's official web portal to all federal, state and local government web resources and services.